createdAt,value
2023-11-26T00:00:18.443Z,-0.48
2023-11-26T00:01:20.144Z,-0.63
2023-11-26T00:02:21.963Z,-0.68
2023-11-26T00:03:23.781Z,-0.68
2023-11-26T00:04:25.588Z,-0.63
2023-11-26T00:05:27.632Z,-0.50
2023-11-26T00:06:29.349Z,-0.40
2023-11-26T00:07:30.978Z,-0.62
2023-11-26T00:08:32.605Z,-0.70
2023-11-26T00:09:38.241Z,-0.75
2023-11-26T00:10:39.977Z,-0.67
2023-11-26T00:11:41.843Z,-0.76
2023-11-26T00:12:44.843Z,-0.62
2023-11-26T00:13:46.627Z,-0.51
2023-11-26T00:14:51.316Z,-0.62
2023-11-26T00:15:52.973Z,-0.65
2023-11-26T00:16:54.784Z,-0.61
2023-11-26T00:17:56.801Z,-0.38
2023-11-26T00:18:58.725Z,-0.39
2023-11-26T00:20:00.638Z,-0.52
2023-11-26T00:21:02.409Z,-0.75
2023-11-26T00:22:04.579Z,-0.75
2023-11-26T00:23:06.368Z,-0.71
2023-11-26T00:24:08.486Z,-0.70
2023-11-26T00:25:10.246Z,-0.73
2023-11-26T00:26:11.948Z,-0.69
2023-11-26T00:27:15.197Z,-0.66
2023-11-26T00:28:18.461Z,-0.77
2023-11-26T00:29:20.183Z,-0.82
2023-11-26T00:30:22.309Z,-0.85
2023-11-26T00:31:24.061Z,-0.80
2023-11-26T00:32:25.797Z,-0.83
2023-11-26T00:33:27.557Z,-0.81
2023-11-26T00:34:29.270Z,-0.72
2023-11-26T00:35:31.014Z,-0.75
2023-11-26T00:36:32.859Z,-0.62
2023-11-26T00:37:34.743Z,-0.80
2023-11-26T00:38:36.384Z,-0.81
2023-11-26T00:39:38.074Z,-0.78
2023-11-26T00:40:39.969Z,-0.82
2023-11-26T00:41:41.871Z,-0.87
2023-11-26T00:42:43.648Z,-0.58
2023-11-26T00:43:46.774Z,-0.68
2023-11-26T00:44:48.421Z,-0.77
2023-11-26T00:45:50.239Z,-0.78
2023-11-26T00:46:52.167Z,-0.71
2023-11-26T00:47:53.992Z,-0.61
2023-11-26T00:48:57.112Z,-0.56
2023-11-26T00:49:58.832Z,-0.68
2023-11-26T00:51:00.749Z,-0.67
2023-11-26T00:52:02.687Z,-0.68
2023-11-26T00:53:04.510Z,-0.73
2023-11-26T00:54:07.796Z,-0.71
2023-11-26T00:55:09.666Z,-0.58
2023-11-26T00:56:11.393Z,-0.70
2023-11-26T00:57:13.177Z,-0.83
2023-11-26T00:58:16.285Z,-0.85
2023-11-26T00:59:19.321Z,-0.83
2023-11-26T01:00:21.244Z,-0.86
2023-11-26T01:01:22.955Z,-0.95
2023-11-26T01:02:24.892Z,-0.93
2023-11-26T01:03:28.253Z,-0.88
2023-11-26T01:04:30.121Z,-0.66
2023-11-26T01:05:31.820Z,-0.58
2023-11-26T01:06:35.984Z,-0.41
2023-11-26T01:07:37.773Z,-0.23
2023-11-26T01:08:39.402Z,0.01
2023-11-26T01:09:41.134Z,0.12
2023-11-26T01:10:42.916Z,-0.10
2023-11-26T01:11:44.838Z,-0.16
2023-11-26T01:12:46.533Z,-0.17
2023-11-26T01:13:48.212Z,-0.14
2023-11-26T01:14:51.268Z,-0.14
2023-11-26T01:15:53.080Z,0.02
2023-11-26T01:16:56.040Z,-0.16
2023-11-26T01:17:57.946Z,-0.39
2023-11-26T01:18:59.689Z,-0.47
2023-11-26T01:20:01.525Z,-0.61
2023-11-26T01:21:04.255Z,-0.74
2023-11-26T01:22:05.924Z,-0.74
2023-11-26T01:23:08.841Z,-0.78
2023-11-26T01:24:10.798Z,-0.83
2023-11-26T01:25:12.664Z,-0.91
2023-11-26T01:26:14.489Z,-0.84
2023-11-26T01:27:16.137Z,-0.66
2023-11-26T01:28:17.847Z,-0.74
2023-11-26T01:29:19.552Z,-0.64
2023-11-26T01:30:22.824Z,-0.66
2023-11-26T01:31:24.629Z,-0.47
2023-11-26T01:32:26.722Z,-0.48
2023-11-26T01:33:28.787Z,-0.33
2023-11-26T01:34:30.549Z,-0.40
2023-11-26T01:35:32.250Z,-0.47
2023-11-26T01:36:34.115Z,-0.47
2023-11-26T01:37:36.460Z,-0.65
2023-11-26T01:38:38.462Z,-0.74
2023-11-26T01:39:40.570Z,-0.81
2023-11-26T01:40:42.345Z,-0.83
2023-11-26T01:41:44.138Z,-0.79
2023-11-26T01:42:45.903Z,-0.69
2023-11-26T01:43:47.752Z,-0.69
2023-11-26T01:44:49.410Z,-0.60
2023-11-26T01:45:58.651Z,-0.62
2023-11-26T01:47:04.820Z,-0.67
2023-11-26T01:48:06.735Z,-0.72
2023-11-26T01:49:08.939Z,-0.84
2023-11-26T01:50:19.962Z,-0.90
2023-11-26T01:51:23.936Z,-0.86
2023-11-26T01:52:25.891Z,-0.95
2023-11-26T01:53:28.193Z,-1.12
2023-11-26T01:54:31.322Z,-1.04
2023-11-26T01:55:33.234Z,-0.93
2023-11-26T01:56:36.108Z,-0.97
2023-11-26T01:57:38.520Z,-0.98
2023-11-26T01:58:40.626Z,-1.02
2023-11-26T01:59:42.355Z,-0.76
2023-11-26T02:00:44.166Z,-0.91
2023-11-26T02:01:47.447Z,-0.99
2023-11-26T02:02:49.629Z,-1.05
2023-11-26T02:03:51.864Z,-0.97
2023-11-26T02:04:53.746Z,-0.88
2023-11-26T02:05:58.627Z,-0.73
2023-11-26T02:07:00.996Z,-0.52
2023-11-26T02:08:03.545Z,-0.67
2023-11-26T02:09:06.541Z,-0.88
2023-11-26T02:10:09.318Z,-0.82
2023-11-26T02:11:11.288Z,-0.86
2023-11-26T02:12:13.904Z,-0.75
2023-11-26T02:13:16.184Z,-0.53
2023-11-26T02:14:17.974Z,-0.75
2023-11-26T02:15:20.217Z,-0.73
2023-11-26T02:16:22.084Z,-0.74
2023-11-26T02:17:25.434Z,-0.94
2023-11-26T02:18:27.198Z,-0.92
2023-11-26T02:19:33.372Z,-0.99
2023-11-26T02:20:35.474Z,-0.96
2023-11-26T02:21:37.415Z,-0.72
2023-11-26T02:22:39.200Z,-0.73
2023-11-26T02:23:42.037Z,-0.70
2023-11-26T02:24:45.868Z,-0.74
2023-11-26T02:25:47.790Z,-0.61
2023-11-26T02:26:49.494Z,-0.72
2023-11-26T02:27:51.518Z,-0.72
2023-11-26T02:28:53.196Z,-0.82
2023-11-26T02:29:55.205Z,-0.78
2023-11-26T02:30:57.248Z,-0.90
2023-11-26T02:31:59.387Z,-0.93
2023-11-26T02:33:01.537Z,-0.95
2023-11-26T02:34:03.213Z,-0.99
2023-11-26T02:35:05.267Z,-0.96
2023-11-26T02:36:07.748Z,-0.87
2023-11-26T02:37:09.540Z,-0.91
2023-11-26T02:38:11.216Z,-0.85
2023-11-26T02:39:12.888Z,-0.68
2023-11-26T02:40:15.929Z,-0.81
2023-11-26T02:41:18.062Z,-0.69
2023-11-26T02:42:19.866Z,-0.82
2023-11-26T02:43:21.513Z,-0.92
2023-11-26T02:44:23.244Z,-1.04
2023-11-26T02:45:24.958Z,-0.99
2023-11-26T02:46:26.707Z,-1.04
2023-11-26T02:47:28.484Z,-1.08
2023-11-26T02:48:30.293Z,-1.05
2023-11-26T02:49:32.104Z,-1.13
2023-11-26T02:50:33.896Z,-1.07
2023-11-26T02:51:36.636Z,-0.96
2023-11-26T02:52:38.403Z,-1.05
2023-11-26T02:53:40.086Z,-0.99
2023-11-26T02:54:41.980Z,-0.94
2023-11-26T02:55:45.137Z,-0.88
2023-11-26T02:56:46.868Z,-0.92
2023-11-26T02:57:50.069Z,-1.05
2023-11-26T02:58:52.029Z,-1.05
2023-11-26T02:59:53.723Z,-1.10
2023-11-26T03:00:55.430Z,-1.07
2023-11-26T03:01:57.787Z,-1.02
2023-11-26T03:02:59.595Z,-1.07
2023-11-26T03:04:01.438Z,-1.05
2023-11-26T03:05:03.093Z,-0.97
2023-11-26T03:06:04.862Z,-0.94
2023-11-26T03:07:06.776Z,-1.07
2023-11-26T03:08:08.784Z,-1.10
2023-11-26T03:09:10.423Z,-1.13
2023-11-26T03:10:12.223Z,-1.21
2023-11-26T03:11:15.303Z,-1.19
2023-11-26T03:12:17.311Z,-1.17
2023-11-26T03:13:18.988Z,-1.09
2023-11-26T03:14:20.742Z,-1.06
2023-11-26T03:15:22.617Z,-1.03
2023-11-26T03:16:24.581Z,-0.88
2023-11-26T03:17:26.387Z,-0.94
2023-11-26T03:18:28.316Z,-1.09
2023-11-26T03:19:30.049Z,-1.24
2023-11-26T03:20:35.675Z,-1.26
2023-11-26T03:21:37.418Z,-1.17
2023-11-26T03:22:39.148Z,-1.08
2023-11-26T03:23:40.975Z,-1.04
2023-11-26T03:24:42.710Z,-1.10
2023-11-26T03:25:44.601Z,-1.19
2023-11-26T03:26:47.760Z,-1.20
2023-11-26T03:27:49.898Z,-1.15
2023-11-26T03:28:51.699Z,-1.14
2023-11-26T03:29:53.527Z,-0.96
2023-11-26T03:30:55.200Z,-0.85
2023-11-26T03:31:57.521Z,-0.75
2023-11-26T03:32:59.350Z,-0.50
2023-11-26T03:34:01.344Z,-0.47
2023-11-26T03:35:03.640Z,-0.52
2023-11-26T03:36:05.743Z,-0.43
2023-11-26T03:37:07.837Z,-0.35
2023-11-26T03:38:09.737Z,-0.62
2023-11-26T03:39:11.471Z,-0.44
2023-11-26T03:40:13.686Z,-0.77
2023-11-26T03:41:15.495Z,-1.19
2023-11-26T03:42:26.128Z,-1.19
2023-11-26T03:43:30.609Z,-1.15
2023-11-26T03:44:32.369Z,-1.22
2023-11-26T03:45:34.097Z,-1.06
2023-11-26T03:46:35.784Z,-1.04
2023-11-26T03:47:37.625Z,-1.19
2023-11-26T03:48:39.470Z,-1.00
2023-11-26T03:49:41.222Z,-0.82
2023-11-26T03:50:42.871Z,-0.88
2023-11-26T03:51:44.519Z,-0.85
2023-11-26T03:52:46.533Z,-1.16
2023-11-26T03:53:48.680Z,-1.16
2023-11-26T03:54:50.478Z,-1.29
2023-11-26T03:55:52.186Z,-1.19
2023-11-26T03:56:53.940Z,-0.90
2023-11-26T03:57:57.293Z,-0.79
2023-11-26T03:58:58.993Z,-0.88
2023-11-26T04:00:00.974Z,-1.11
2023-11-26T04:01:02.782Z,-1.13
2023-11-26T04:02:04.930Z,-1.27
2023-11-26T04:03:08.422Z,-1.32
2023-11-26T04:04:10.231Z,-1.28
2023-11-26T04:05:12.382Z,-1.34
2023-11-26T04:06:14.126Z,-1.33
2023-11-26T04:07:15.758Z,-1.25
2023-11-26T04:08:17.444Z,-1.21
2023-11-26T04:09:21.759Z,-1.14
2023-11-26T04:10:28.037Z,-1.19
2023-11-26T04:11:36.577Z,-1.02
2023-11-26T04:12:38.529Z,-1.03
2023-11-26T04:13:41.571Z,-0.93
2023-11-26T04:14:53.591Z,-0.96
2023-11-26T04:15:55.877Z,-0.93
2023-11-26T04:16:58.519Z,-0.95
2023-11-26T04:18:00.559Z,-0.99
2023-11-26T04:19:02.405Z,-1.07
2023-11-26T04:20:05.169Z,-0.70
2023-11-26T04:21:07.406Z,-0.85
2023-11-26T04:22:09.190Z,-0.95
2023-11-26T04:23:10.874Z,-0.94
2023-11-26T04:24:12.980Z,-0.75
2023-11-26T04:25:14.724Z,-0.84
2023-11-26T04:26:16.338Z,-0.77
2023-11-26T04:27:18.572Z,-0.79
2023-11-26T04:28:20.238Z,-0.90
2023-11-26T04:29:23.443Z,-1.01
2023-11-26T04:30:25.093Z,-0.86
2023-11-26T04:31:26.807Z,-1.01
2023-11-26T04:32:28.654Z,-1.12
2023-11-26T04:33:32.032Z,-1.20
2023-11-26T04:34:33.907Z,-1.20
2023-11-26T04:35:35.670Z,-1.24
2023-11-26T04:36:37.412Z,-1.18
2023-11-26T04:37:39.116Z,-1.21
2023-11-26T04:38:40.959Z,-1.17
2023-11-26T04:39:42.801Z,-0.98
2023-11-26T04:40:44.396Z,-0.82
2023-11-26T04:41:46.080Z,-0.69
2023-11-26T04:42:47.768Z,-0.60
2023-11-26T04:43:49.645Z,-0.79
2023-11-26T04:44:52.767Z,-0.95
2023-11-26T04:45:54.516Z,-1.05
2023-11-26T04:46:56.296Z,-1.22
2023-11-26T04:47:58.113Z,-1.32
2023-11-26T04:48:59.961Z,-1.25
2023-11-26T04:50:01.656Z,-1.31
2023-11-26T04:51:03.540Z,-1.16
2023-11-26T04:52:05.966Z,-1.08
2023-11-26T04:53:07.572Z,-1.10
2023-11-26T04:54:09.665Z,-1.13
2023-11-26T04:55:11.376Z,-1.20
2023-11-26T04:56:12.969Z,-1.23
2023-11-26T04:57:14.643Z,-1.13
2023-11-26T04:58:16.342Z,-1.16
2023-11-26T04:59:18.268Z,-1.08
2023-11-26T05:00:21.382Z,-0.83
2023-11-26T05:01:23.099Z,-0.48
2023-11-26T05:02:25.065Z,-0.25
2023-11-26T05:03:26.946Z,-0.19
2023-11-26T05:04:28.769Z,-0.48
2023-11-26T05:05:30.689Z,-0.43
2023-11-26T05:06:32.358Z,-0.44
2023-11-26T05:07:34.049Z,-0.56
2023-11-26T05:08:35.716Z,-0.57
2023-11-26T05:09:37.525Z,-1.02
2023-11-26T05:10:39.181Z,-1.10
2023-11-26T05:11:41.942Z,-1.10
2023-11-26T05:12:43.766Z,-1.16
2023-11-26T05:13:45.815Z,-1.13
2023-11-26T05:14:47.411Z,-1.24
2023-11-26T05:15:50.555Z,-1.35
2023-11-26T05:16:52.188Z,-1.41
2023-11-26T05:17:53.979Z,-1.46
2023-11-26T05:18:55.838Z,-1.52
2023-11-26T05:19:57.737Z,-1.53
2023-11-26T05:20:59.562Z,-1.38
2023-11-26T05:22:01.254Z,-1.46
2023-11-26T05:23:03.049Z,-1.43
2023-11-26T05:24:05.893Z,-1.46
2023-11-26T05:25:08.559Z,-1.45
2023-11-26T05:26:12.980Z,-1.37
2023-11-26T05:27:15.039Z,-1.42
2023-11-26T05:28:19.364Z,-1.28
2023-11-26T05:29:21.281Z,-0.95
2023-11-26T05:30:22.981Z,-0.71
2023-11-26T05:31:26.105Z,-0.55
2023-11-26T05:32:27.915Z,-0.48
2023-11-26T05:33:29.543Z,-0.34
2023-11-26T05:34:31.660Z,-0.24
2023-11-26T05:35:33.429Z,-0.16
2023-11-26T05:36:35.194Z,-0.16
2023-11-26T05:37:37.130Z,-0.57
2023-11-26T05:38:38.766Z,-0.82
2023-11-26T05:39:40.482Z,-0.75
2023-11-26T05:40:42.108Z,-0.95
2023-11-26T05:41:43.898Z,-1.23
2023-11-26T05:42:45.553Z,-1.40
2023-11-26T05:43:47.362Z,-1.56
2023-11-26T05:44:48.984Z,-1.63
2023-11-26T05:45:50.721Z,-1.69
2023-11-26T05:46:53.846Z,-1.75
2023-11-26T05:47:56.022Z,-1.48
2023-11-26T05:48:58.228Z,-1.59
2023-11-26T05:50:00.350Z,-1.70
2023-11-26T05:51:04.655Z,-1.74
2023-11-26T05:52:08.066Z,-1.60
2023-11-26T05:53:09.719Z,-1.72
2023-11-26T05:54:11.572Z,-1.68
2023-11-26T05:55:13.696Z,-1.56
2023-11-26T05:56:15.569Z,-1.67
2023-11-26T05:57:17.240Z,-1.71
2023-11-26T05:58:18.997Z,-1.67
2023-11-26T05:59:20.618Z,-1.71
2023-11-26T06:00:22.709Z,-1.69
2023-11-26T06:01:25.233Z,-1.71
2023-11-26T06:02:28.408Z,-1.71
2023-11-26T06:03:30.210Z,-1.76
2023-11-26T06:04:31.899Z,-1.67
2023-11-26T06:05:34.730Z,-1.50
2023-11-26T06:06:36.344Z,-1.55
2023-11-26T06:07:38.179Z,-1.53
2023-11-26T06:08:39.839Z,-1.48
2023-11-26T06:09:41.878Z,-1.39
2023-11-26T06:10:43.548Z,-1.56
2023-11-26T06:11:45.275Z,-1.56
2023-11-26T06:12:46.949Z,-1.49
2023-11-26T06:13:48.694Z,-1.46
2023-11-26T06:14:50.473Z,-1.29
2023-11-26T06:15:52.249Z,-1.45
2023-11-26T06:16:53.941Z,-1.39
2023-11-26T06:17:57.086Z,-1.27
2023-11-26T06:18:58.771Z,-1.29
2023-11-26T06:20:00.495Z,-1.18
2023-11-26T06:21:02.205Z,-1.40
2023-11-26T06:22:04.167Z,-1.30
2023-11-26T06:23:05.946Z,-1.45
2023-11-26T06:24:08.534Z,-1.15
2023-11-26T06:25:10.782Z,-1.26
2023-11-26T06:26:16.496Z,-1.14
2023-11-26T06:27:18.223Z,-1.12
2023-11-26T06:28:19.939Z,-1.30
2023-11-26T06:29:21.823Z,-1.31
2023-11-26T06:30:23.601Z,-1.05
2023-11-26T06:31:25.455Z,-1.13
2023-11-26T06:32:27.206Z,-1.26
2023-11-26T06:33:31.429Z,-1.37
2023-11-26T06:34:33.150Z,-1.30
2023-11-26T06:35:34.805Z,-1.36
2023-11-26T06:36:36.514Z,-1.14
2023-11-26T06:37:40.416Z,-1.34
2023-11-26T06:38:42.038Z,-1.20
2023-11-26T06:39:43.691Z,-1.17
2023-11-26T06:40:45.719Z,-1.30
2023-11-26T06:41:50.427Z,-1.45
2023-11-26T06:42:52.124Z,-1.49
2023-11-26T06:43:53.957Z,-1.15
2023-11-26T06:44:55.652Z,-1.27
2023-11-26T06:45:57.479Z,-1.50
2023-11-26T06:46:59.972Z,-1.59
2023-11-26T06:48:02.422Z,-1.62
2023-11-26T06:49:05.673Z,-1.64
2023-11-26T06:50:08.553Z,-1.64
2023-11-26T06:51:10.917Z,-1.59
2023-11-26T06:52:12.658Z,-1.54
2023-11-26T06:53:14.302Z,-1.50
2023-11-26T06:54:16.102Z,-1.63
2023-11-26T06:55:17.767Z,-1.64
2023-11-26T06:56:19.853Z,-1.70
2023-11-26T06:57:21.553Z,-1.62
2023-11-26T06:58:23.238Z,-1.71
2023-11-26T06:59:24.837Z,-1.41
2023-11-26T07:00:26.534Z,-1.27
2023-11-26T07:01:28.195Z,-1.29
2023-11-26T07:02:30.140Z,-1.18
2023-11-26T07:03:32.017Z,-1.49
2023-11-26T07:04:35.742Z,-1.58
2023-11-26T07:05:37.692Z,-1.62
2023-11-26T07:06:41.834Z,-1.58
2023-11-26T07:07:43.538Z,-1.57
2023-11-26T07:08:45.180Z,-1.53
2023-11-26T07:09:46.976Z,-1.61
2023-11-26T07:10:48.879Z,-1.67
2023-11-26T07:11:50.530Z,-1.57
2023-11-26T07:12:54.031Z,-1.28
2023-11-26T07:13:56.592Z,-1.20
2023-11-26T07:14:59.024Z,-1.22
2023-11-26T07:16:00.859Z,-1.20
2023-11-26T07:17:02.636Z,-1.04
2023-11-26T07:18:04.499Z,-0.89
2023-11-26T07:19:06.138Z,-1.18
2023-11-26T07:20:10.520Z,-1.53
2023-11-26T07:21:12.602Z,-1.46
2023-11-26T07:22:14.277Z,-1.50
2023-11-26T07:23:16.538Z,-1.56
2023-11-26T07:24:18.189Z,-1.40
2023-11-26T07:25:19.850Z,-1.55
2023-11-26T07:26:21.661Z,-1.58
2023-11-26T07:27:23.329Z,-1.61
2023-11-26T07:28:25.001Z,-1.43
2023-11-26T07:29:26.623Z,-1.57
2023-11-26T07:30:28.310Z,-1.54
2023-11-26T07:31:30.353Z,-1.46
2023-11-26T07:32:32.109Z,-1.47
2023-11-26T07:33:34.306Z,-1.42
2023-11-26T07:34:35.924Z,-1.45
2023-11-26T07:35:38.871Z,-1.52
2023-11-26T07:36:40.603Z,-1.57
2023-11-26T07:37:42.338Z,-1.69
2023-11-26T07:38:44.360Z,-1.54
2023-11-26T07:39:46.134Z,-1.51
2023-11-26T07:40:48.039Z,-1.46
2023-11-26T07:41:50.030Z,-1.50
2023-11-26T07:42:51.915Z,-1.43
2023-11-26T07:43:54.105Z,-1.51
2023-11-26T07:44:55.883Z,-1.52
2023-11-26T07:45:57.615Z,-1.48
2023-11-26T07:46:59.387Z,-1.36
2023-11-26T07:48:01.190Z,-1.39
2023-11-26T07:49:02.887Z,-1.44
2023-11-26T07:50:05.664Z,-1.37
2023-11-26T07:51:08.940Z,-1.26
2023-11-26T07:52:10.776Z,-1.25
2023-11-26T07:53:13.637Z,-1.30
2023-11-26T07:54:23.301Z,-1.43
2023-11-26T07:55:29.618Z,-1.38
2023-11-26T07:56:32.731Z,-1.29
2023-11-26T07:57:35.268Z,-1.47
2023-11-26T07:58:37.325Z,-1.57
2023-11-26T07:59:38.938Z,-1.40
2023-11-26T08:00:40.634Z,-1.36
2023-11-26T08:01:42.349Z,-1.39
2023-11-26T08:02:44.365Z,-1.28
2023-11-26T08:03:46.208Z,-1.31
2023-11-26T08:04:47.895Z,-1.39
2023-11-26T08:05:51.084Z,-1.55
2023-11-26T08:06:55.311Z,-1.54
2023-11-26T08:07:57.081Z,-1.52
2023-11-26T08:08:59.039Z,-1.62
2023-11-26T08:10:00.815Z,-1.52
2023-11-26T08:11:04.130Z,-1.38
2023-11-26T08:12:06.476Z,-1.09
2023-11-26T08:13:08.281Z,-1.09
2023-11-26T08:14:09.977Z,-1.30
2023-11-26T08:15:11.809Z,-1.29
2023-11-26T08:16:13.589Z,-1.38
2023-11-26T08:17:15.309Z,-1.41
2023-11-26T08:18:17.136Z,-1.24
2023-11-26T08:19:18.880Z,-1.39
2023-11-26T08:20:20.717Z,-1.31
2023-11-26T08:21:22.485Z,-1.12
2023-11-26T08:22:25.467Z,-1.31
2023-11-26T08:23:27.252Z,-1.50
2023-11-26T08:24:28.942Z,-1.55
2023-11-26T08:25:30.633Z,-1.51
2023-11-26T08:26:32.294Z,-1.43
2023-11-26T08:27:34.785Z,-1.52
2023-11-26T08:28:36.939Z,-1.51
2023-11-26T08:29:39.409Z,-1.45
2023-11-26T08:30:42.209Z,-1.53
2023-11-26T08:31:44.009Z,-1.36
2023-11-26T08:32:45.727Z,-1.50
2023-11-26T08:33:47.527Z,-1.54
2023-11-26T08:34:49.269Z,-1.47
2023-11-26T08:35:50.931Z,-1.39
2023-11-26T08:36:52.617Z,-1.37
2023-11-26T08:37:55.800Z,-1.40
2023-11-26T08:38:57.498Z,-1.38
2023-11-26T08:39:59.162Z,-1.37
2023-11-26T08:41:00.924Z,-1.28
2023-11-26T08:42:03.265Z,-1.25
2023-11-26T08:43:06.576Z,-1.33
2023-11-26T08:44:08.218Z,-1.23
2023-11-26T08:45:10.545Z,-1.14
2023-11-26T08:46:15.163Z,-1.20
2023-11-26T08:47:17.960Z,-1.23
2023-11-26T08:48:19.769Z,-1.15
2023-11-26T08:49:21.401Z,-1.10
2023-11-26T08:50:23.199Z,-1.06
2023-11-26T08:51:24.945Z,-1.10
2023-11-26T08:52:26.590Z,-1.09
2023-11-26T08:53:29.688Z,-1.05
2023-11-26T08:54:31.349Z,-0.96
2023-11-26T08:55:32.981Z,-0.82
2023-11-26T08:56:34.662Z,-0.92
2023-11-26T08:57:39.725Z,-1.06
2023-11-26T08:58:41.536Z,-1.00
2023-11-26T08:59:43.346Z,-0.96
2023-11-26T09:00:45.061Z,-0.94
2023-11-26T09:01:47.280Z,-1.02
2023-11-26T09:02:48.932Z,-1.02
2023-11-26T09:03:50.726Z,-1.03
2023-11-26T09:04:52.549Z,-0.96
2023-11-26T09:05:54.668Z,-0.99
2023-11-26T09:06:56.938Z,-0.92
2023-11-26T09:07:58.844Z,-0.94
2023-11-26T09:09:02.005Z,-0.87
2023-11-26T09:10:04.393Z,-0.84
2023-11-26T09:11:06.621Z,-0.90
2023-11-26T09:12:08.913Z,-0.83
2023-11-26T09:13:10.693Z,-0.77
2023-11-26T09:14:12.379Z,-0.83
2023-11-26T09:15:14.412Z,-0.87
2023-11-26T09:16:16.231Z,-0.85
2023-11-26T09:17:17.959Z,-0.85
2023-11-26T09:18:19.758Z,-0.79
2023-11-26T09:19:21.403Z,-0.79
2023-11-26T09:20:23.087Z,-0.76
2023-11-26T09:21:24.864Z,-0.68
2023-11-26T09:22:26.607Z,-0.63
2023-11-26T09:23:28.260Z,-0.75
2023-11-26T09:24:31.376Z,-0.69
2023-11-26T09:25:33.699Z,-0.62
2023-11-26T09:26:35.395Z,-0.63
2023-11-26T09:27:37.394Z,-0.66
2023-11-26T09:28:41.642Z,-0.63
2023-11-26T09:29:43.591Z,-0.66
2023-11-26T09:30:45.329Z,-0.68
2023-11-26T09:31:47.305Z,-0.67
2023-11-26T09:32:49.135Z,-0.59
2023-11-26T09:33:51.121Z,-0.66
2023-11-26T09:34:54.906Z,-0.55
2023-11-26T09:35:56.750Z,-0.38
2023-11-26T09:36:58.653Z,-0.37
2023-11-26T09:38:00.386Z,-0.44
2023-11-26T09:39:02.128Z,-0.44
2023-11-26T09:40:06.544Z,-0.36
2023-11-26T09:41:08.191Z,-0.32
2023-11-26T09:42:10.741Z,-0.41
2023-11-26T09:43:14.765Z,-0.24
2023-11-26T09:44:16.518Z,-0.37
2023-11-26T09:45:18.553Z,-0.15
2023-11-26T09:46:20.570Z,-0.22
2023-11-26T09:47:23.229Z,-0.18
2023-11-26T09:48:25.046Z,-0.21
2023-11-26T09:49:26.702Z,-0.06
2023-11-26T09:50:28.480Z,-0.07
2023-11-26T09:51:31.933Z,-0.04
2023-11-26T09:52:34.877Z,-0.11
2023-11-26T09:53:37.927Z,-0.03
2023-11-26T09:54:39.599Z,-0.24
2023-11-26T09:55:43.850Z,-0.29
2023-11-26T09:56:46.924Z,-0.22
2023-11-26T09:57:48.777Z,-0.17
2023-11-26T09:58:50.448Z,-0.03
2023-11-26T09:59:52.041Z,-0.07
2023-11-26T10:00:53.792Z,-0.08
2023-11-26T10:01:55.592Z,-0.05
2023-11-26T10:03:00.558Z,-0.17
2023-11-26T10:04:03.152Z,-0.26
2023-11-26T10:05:05.986Z,-0.16
2023-11-26T10:06:10.772Z,-0.17
2023-11-26T10:07:12.385Z,-0.20
2023-11-26T10:08:27.244Z,-0.09
2023-11-26T10:09:29.926Z,-0.03
2023-11-26T10:10:31.751Z,0.08
2023-11-26T10:11:35.296Z,0.05
2023-11-26T10:12:51.042Z,0.11
2023-11-26T10:13:53.589Z,0.06
2023-11-26T10:15:04.159Z,0.15
2023-11-26T10:16:07.988Z,0.07
2023-11-26T10:17:10.557Z,-0.09
2023-11-26T10:18:12.279Z,-0.15
2023-11-26T10:19:23.273Z,-0.11
2023-11-26T10:20:25.016Z,-0.15
2023-11-26T10:21:26.811Z,-0.07
2023-11-26T10:22:45.103Z,-0.10
2023-11-26T10:23:46.859Z,-0.07
2023-11-26T10:24:48.583Z,-0.16
2023-11-26T10:25:50.324Z,-0.06
2023-11-26T10:26:54.161Z,0.04
2023-11-26T10:27:56.398Z,0.13
2023-11-26T10:29:05.125Z,0.12
2023-11-26T10:30:34.142Z,0.34
2023-11-26T10:31:39.597Z,0.33
2023-11-26T10:32:57.931Z,0.46
2023-11-26T10:34:08.835Z,0.18
2023-11-26T10:35:10.604Z,0.26
2023-11-26T10:36:31.455Z,0.20
2023-11-26T10:37:33.208Z,0.24
2023-11-26T10:38:35.336Z,0.18
2023-11-26T10:39:37.111Z,0.26
2023-11-26T10:40:41.146Z,0.21
2023-11-26T10:41:45.680Z,0.20
2023-11-26T10:42:49.408Z,0.17
2023-11-26T10:43:55.363Z,0.22
2023-11-26T10:44:59.161Z,0.29
2023-11-26T10:46:01.389Z,0.56
2023-11-26T10:47:06.452Z,0.45
2023-11-26T10:48:10.805Z,0.35
2023-11-26T10:49:16.746Z,0.28
2023-11-26T10:50:19.193Z,0.21
2023-11-26T10:51:27.216Z,0.17
2023-11-26T10:52:39.016Z,0.21
2023-11-26T10:53:50.619Z,0.17
2023-11-26T10:55:02.144Z,0.24
2023-11-26T10:56:07.948Z,0.40
2023-11-26T10:57:14.142Z,0.65
2023-11-26T10:58:19.173Z,0.79
2023-11-26T10:59:22.513Z,0.90
2023-11-26T11:00:25.966Z,0.90
2023-11-26T11:01:27.925Z,1.10
2023-11-26T11:02:32.284Z,1.17
2023-11-26T11:03:34.637Z,0.95
2023-11-26T11:04:38.105Z,0.76
2023-11-26T11:05:42.304Z,0.91
2023-11-26T11:06:44.937Z,0.74
2023-11-26T11:07:48.967Z,0.96
2023-11-26T11:08:52.013Z,1.08
2023-11-26T11:10:01.785Z,1.05
2023-11-26T11:11:15.550Z,1.08
2023-11-26T11:12:23.394Z,1.00
2023-11-26T11:13:27.558Z,0.92
2023-11-26T11:14:30.226Z,0.87
2023-11-26T11:15:32.188Z,0.91
2023-11-26T11:16:34.138Z,0.87
2023-11-26T11:17:35.936Z,0.85
2023-11-26T11:18:46.334Z,0.95
2023-11-26T11:19:48.576Z,0.88
2023-11-26T11:21:00.181Z,0.74
2023-11-26T11:22:02.081Z,0.84
2023-11-26T11:23:03.834Z,0.71
2023-11-26T11:24:19.530Z,0.74
2023-11-26T11:25:21.541Z,0.48
2023-11-26T11:26:26.798Z,0.45
2023-11-26T11:27:53.219Z,0.42
2023-11-26T11:28:56.562Z,0.56
2023-11-26T11:29:58.267Z,0.40
2023-11-26T11:31:00.109Z,0.32
2023-11-26T11:32:02.367Z,0.42
2023-11-26T11:33:04.527Z,0.38
2023-11-26T11:34:19.816Z,0.29
2023-11-26T11:35:38.336Z,0.30
2023-11-26T11:36:50.382Z,0.36
2023-11-26T11:38:05.070Z,0.46
2023-11-26T11:39:09.761Z,0.47
2023-11-26T11:40:11.914Z,0.64
2023-11-26T11:41:13.650Z,0.68
2023-11-26T11:42:15.862Z,0.66
2023-11-26T11:43:17.487Z,0.57
2023-11-26T11:44:28.280Z,0.53
2023-11-26T11:45:30.617Z,0.70
2023-11-26T11:46:50.238Z,0.84
2023-11-26T11:47:53.634Z,1.00
2023-11-26T11:48:55.846Z,0.98
2023-11-26T11:50:08.060Z,1.09
2023-11-26T11:51:34.670Z,0.97
2023-11-26T11:52:37.794Z,1.00
2023-11-26T11:53:39.733Z,1.09
2023-11-26T11:55:00.658Z,1.22
2023-11-26T11:56:08.663Z,1.06
2023-11-26T11:57:15.666Z,1.04
2023-11-26T11:58:17.460Z,1.29
2023-11-26T11:59:19.456Z,0.97
2023-11-26T12:00:23.122Z,1.13
2023-11-26T12:01:25.770Z,1.14
2023-11-26T12:02:34.665Z,1.17
2023-11-26T12:03:37.663Z,1.18
2023-11-26T12:04:41.404Z,1.39
2023-11-26T12:05:43.383Z,1.33
2023-11-26T12:06:49.661Z,1.33
2023-11-26T12:07:51.548Z,1.28
2023-11-26T12:08:56.209Z,1.46
2023-11-26T12:09:57.952Z,1.53
2023-11-26T12:11:00.876Z,1.68
2023-11-26T12:12:02.665Z,1.59
2023-11-26T12:13:05.882Z,1.52
2023-11-26T12:14:07.527Z,1.70
2023-11-26T12:15:09.584Z,1.74
2023-11-26T12:16:12.963Z,1.80
2023-11-26T12:17:14.737Z,1.70
2023-11-26T12:18:17.497Z,1.57
2023-11-26T12:19:19.433Z,1.32
2023-11-26T12:20:21.264Z,1.30
2023-11-26T12:21:23.458Z,1.54
2023-11-26T12:22:25.379Z,1.15
2023-11-26T12:23:31.063Z,0.83
2023-11-26T12:24:33.835Z,0.87
2023-11-26T12:25:35.561Z,1.03
2023-11-26T12:26:37.263Z,1.21
2023-11-26T12:27:39.037Z,1.56
2023-11-26T12:28:42.035Z,1.57
2023-11-26T12:29:45.069Z,1.17
2023-11-26T12:30:55.871Z,1.15
2023-11-26T12:32:00.997Z,1.08
2023-11-26T12:33:03.349Z,1.13
2023-11-26T12:34:05.304Z,1.03
2023-11-26T12:35:11.784Z,0.63
2023-11-26T12:36:15.664Z,0.85
2023-11-26T12:37:18.615Z,0.84
2023-11-26T12:38:20.972Z,0.95
2023-11-26T12:39:23.534Z,1.00
2023-11-26T12:40:25.913Z,1.08
2023-11-26T12:41:27.986Z,1.29
2023-11-26T12:42:31.066Z,1.11
2023-11-26T12:43:34.259Z,1.10
2023-11-26T12:44:36.270Z,1.40
2023-11-26T12:45:38.106Z,1.24
2023-11-26T12:46:39.910Z,1.17
2023-11-26T12:47:53.749Z,1.36
2023-11-26T12:48:55.555Z,1.20
2023-11-26T12:49:58.012Z,1.19
2023-11-26T12:51:00.358Z,1.19
2023-11-26T12:52:06.722Z,1.13
2023-11-26T12:53:11.055Z,1.05
2023-11-26T12:54:12.972Z,1.12
2023-11-26T12:55:15.596Z,1.36
2023-11-26T12:56:20.512Z,1.46
2023-11-26T12:57:22.410Z,1.23
2023-11-26T12:58:25.943Z,1.19
2023-11-26T12:59:28.640Z,1.60
2023-11-26T13:00:37.210Z,1.61
2023-11-26T13:01:39.130Z,1.38
2023-11-26T13:02:41.984Z,1.41
2023-11-26T13:03:50.312Z,1.26
2023-11-26T13:04:52.267Z,1.22
2023-11-26T13:05:53.876Z,1.26
2023-11-26T13:06:56.142Z,1.24
2023-11-26T13:08:01.319Z,1.52
2023-11-26T13:09:04.161Z,1.51
2023-11-26T13:10:06.492Z,1.52
2023-11-26T13:11:08.565Z,1.53
2023-11-26T13:12:10.350Z,1.81
2023-11-26T13:13:20.492Z,2.11
2023-11-26T13:14:22.281Z,2.19
2023-11-26T13:15:23.928Z,2.20
2023-11-26T13:16:25.580Z,2.17
2023-11-26T13:17:33.143Z,2.29
2023-11-26T13:18:35.070Z,2.38
2023-11-26T13:19:38.254Z,2.38
2023-11-26T13:20:40.851Z,2.26
2023-11-26T13:21:46.605Z,1.98
2023-11-26T13:22:49.971Z,1.86
2023-11-26T13:23:51.633Z,1.99
2023-11-26T13:24:53.526Z,2.22
2023-11-26T13:25:55.372Z,2.36
2023-11-26T13:26:57.038Z,2.38
2023-11-26T13:27:58.710Z,2.42
2023-11-26T13:29:00.391Z,2.50
2023-11-26T13:30:02.076Z,2.56
2023-11-26T13:31:03.764Z,2.49
2023-11-26T13:32:06.588Z,2.44
2023-11-26T13:33:09.090Z,2.46
2023-11-26T13:34:10.974Z,2.43
2023-11-26T13:35:15.878Z,2.44
2023-11-26T13:36:17.506Z,2.53